Decoded Metar for KGEV (JEFFERSON in NC, USA) (IATA:GEV) | Meteo·Mobile Aviation Weather
aviador You're here:

KGEV Decoded Metar

JEFFERSON in NC, USA
Report Time2018-11-18 01:50:00
UTC Time2018-11-18 01:59:11
Flight Rules vfr VFR
WindCalm
Visibility9999 m
Phenomena:N/A
Clouds:N/A
Expected CloudBase > 2,000 ft AGL from Temp-Dew spread
CeilingNone
Temp05°C (ISA -4)
Dew Point00°C (70% RH)
AAT3.0°C
QNH1024 hPa
Density Alt2,461 ft
Elevation3,179 ft
Report Wrong Elevation
Raw Report
METAR KGEV 180150Z AUTO 00000KT 10SM CLR 05/00 A3023 RMK AO2 T00501001=

Extra information for KGEV:More info

Metar Taf Metar & Taf Last 4 Metars F.Rules Stats Wind Profile Meteogram Temp Stats Airport Information Weather charts Add Link Nearby VenuesMetar ALERT Operation Metar Decoded Social comments

AIRNAV info for KGEV